Viterbo Airport LIRV

Flugplatz Daten

Name: Viterbo Airport

Ident: LIRV

Lat: 42,43019867

Long: 12,0642004

Platzhöhe: 992 ft

IataCode:

City: Viterbo

Metar

2021/08/05 12:55
LIRV 051255Z 22012KT 9999 SCT025 28/12 Q1012 RMK BKN SCT200 MON E SE LIB NC VIS MIN 9999 WIND THR04 /////KT BLU

Taf

Gewünschte Webcam nicht vorhanden? Dann fügen Sie eine hinzu. Sie wird dann so schnell wie möglich freigeschaltet
Url: Title: